createdAt,value
2022-09-03T00:00:40.389Z,9.745556
2022-09-03T00:01:40.433Z,9.745565
2022-09-03T00:02:40.409Z,9.745565
2022-09-03T00:03:40.367Z,9.745468
2022-09-03T00:04:40.382Z,9.745378
2022-09-03T00:05:40.350Z,9.745539
2022-09-03T00:06:40.340Z,9.745554
2022-09-03T00:07:40.329Z,9.745660
2022-09-03T00:08:40.793Z,9.745604
2022-09-03T00:09:40.340Z,9.745664
2022-09-03T00:10:40.310Z,9.745679
2022-09-03T00:11:40.301Z,9.745468
2022-09-03T00:12:40.295Z,9.745505
2022-09-03T00:13:40.286Z,9.745451
2022-09-03T00:14:40.305Z,9.745520
2022-09-03T00:15:40.305Z,9.745578
2022-09-03T00:16:40.266Z,9.745399
2022-09-03T00:17:40.250Z,9.745299
2022-09-03T00:18:40.240Z,9.745378
2022-09-03T00:19:41.259Z,9.745356
2022-09-03T00:20:40.237Z,9.745411
2022-09-03T00:21:40.229Z,9.745457
2022-09-03T00:22:40.217Z,9.745584
2022-09-03T00:23:40.209Z,9.745583
2022-09-03T00:24:40.219Z,9.745380
2022-09-03T00:25:40.193Z,9.745447
2022-09-03T00:26:40.180Z,9.745522
2022-09-03T00:27:40.173Z,9.745616
2022-09-03T00:28:40.167Z,9.745584
2022-09-03T00:29:40.186Z,9.745551
2022-09-03T00:30:40.147Z,9.745608
2022-09-03T00:31:40.182Z,9.745560
2022-09-03T00:32:40.130Z,9.745517
2022-09-03T00:33:40.126Z,9.745343
2022-09-03T00:34:40.140Z,9.745508
2022-09-03T00:35:40.107Z,9.745482
2022-09-03T00:36:40.103Z,9.745261
2022-09-03T00:37:40.093Z,9.745289
2022-09-03T00:38:40.085Z,9.745543
2022-09-03T00:39:40.160Z,9.745612
2022-09-03T00:40:40.073Z,9.745606
2022-09-03T00:41:40.065Z,9.745478
2022-09-03T00:42:40.055Z,9.745588
2022-09-03T00:43:40.046Z,9.745754
2022-09-03T00:44:40.062Z,9.745587
2022-09-03T00:45:40.027Z,9.745347
2022-09-03T00:46:40.083Z,9.745249
2022-09-03T00:47:40.011Z,9.745494
2022-09-03T00:48:41.010Z,9.745782
2022-09-03T00:49:40.024Z,9.745779
2022-09-03T00:50:39.990Z,9.745302
2022-09-03T00:51:39.987Z,9.745543
2022-09-03T00:52:39.978Z,9.745585
2022-09-03T00:53:39.964Z,9.745843
2022-09-03T00:54:39.988Z,9.745676
2022-09-03T00:55:39.951Z,9.745410
2022-09-03T00:56:39.943Z,9.745368
2022-09-03T00:57:39.944Z,9.745395
2022-09-03T00:58:39.928Z,9.745517
2022-09-03T00:59:39.944Z,9.745222
2022-09-03T01:00:39.904Z,9.745685
2022-09-03T01:01:39.990Z,9.745852
2022-09-03T01:02:40.030Z,9.745959
2022-09-03T01:03:39.886Z,9.745540
2022-09-03T01:04:39.908Z,9.745722
2022-09-03T01:05:39.869Z,9.745823
2022-09-03T01:06:39.862Z,9.745784
2022-09-03T01:07:39.853Z,9.745619
2022-09-03T01:08:39.845Z,9.745547
2022-09-03T01:09:39.860Z,9.745681
2022-09-03T01:10:39.865Z,9.745521
2022-09-03T01:11:39.825Z,9.745694
2022-09-03T01:12:39.816Z,9.745516
2022-09-03T01:13:39.804Z,9.745187
2022-09-03T01:14:39.832Z,9.745312
2022-09-03T01:15:39.824Z,9.745378
2022-09-03T01:16:39.785Z,9.745427
2022-09-03T01:17:39.770Z,9.745472
2022-09-03T01:18:39.769Z,9.745905
2022-09-03T01:19:39.785Z,9.745812
2022-09-03T01:20:39.753Z,9.745572
2022-09-03T01:21:39.747Z,9.745781
2022-09-03T01:22:40.763Z,9.745924
2022-09-03T01:23:39.729Z,9.745503
2022-09-03T01:24:39.724Z,9.745310
2022-09-03T01:25:39.741Z,9.745405
2022-09-03T01:26:39.707Z,9.745620
2022-09-03T01:27:39.702Z,9.745481
2022-09-03T01:28:39.691Z,9.745485
2022-09-03T01:29:39.830Z,9.745424
2022-09-03T01:30:39.740Z,9.745370
2022-09-03T01:31:39.668Z,9.745306
2022-09-03T01:32:39.660Z,9.745013
2022-09-03T01:33:39.652Z,9.745013
2022-09-03T01:34:39.642Z,9.745003
2022-09-03T01:35:39.658Z,9.745280
2022-09-03T01:36:39.627Z,9.745393
2022-09-03T01:37:39.622Z,9.745337
2022-09-03T01:38:39.611Z,9.745458
2022-09-03T01:39:39.653Z,9.745363
2022-09-03T01:40:39.626Z,9.745271
2022-09-03T01:41:39.593Z,9.745265
2022-09-03T01:42:39.592Z,9.745396
2022-09-03T01:43:44.709Z,9.745067
2022-09-03T01:44:41.565Z,9.745472
2022-09-03T01:45:39.587Z,9.745375
2022-09-03T01:46:39.658Z,9.745518
2022-09-03T01:47:39.550Z,9.745408
2022-09-03T01:48:39.538Z,9.745397
2022-09-03T01:49:39.540Z,9.745031
2022-09-03T01:50:39.551Z,9.744999
2022-09-03T01:51:39.540Z,9.745206
2022-09-03T01:52:39.518Z,9.745404
2022-09-03T01:53:39.501Z,9.745487
2022-09-03T01:54:39.506Z,9.745432
2022-09-03T01:55:39.561Z,9.745387
2022-09-03T01:56:39.475Z,9.745477
2022-09-03T01:57:39.468Z,9.745337
2022-09-03T01:58:39.461Z,9.745711
2022-09-03T01:59:39.456Z,9.745515
2022-09-03T02:00:39.468Z,9.745955
2022-09-03T02:01:39.477Z,9.745836
2022-09-03T02:02:39.450Z,9.745734
2022-09-03T02:03:41.133Z,9.745941
2022-09-03T02:04:39.415Z,9.746004
2022-09-03T02:05:39.433Z,9.745768
2022-09-03T02:06:39.402Z,9.745711
2022-09-03T02:07:39.382Z,9.745892
2022-09-03T02:08:40.385Z,9.746011
2022-09-03T02:09:39.378Z,9.745738
2022-09-03T02:10:39.399Z,9.745649
2022-09-03T02:11:39.359Z,9.745834
2022-09-03T02:12:39.356Z,9.745992
2022-09-03T02:13:39.348Z,9.745977
2022-09-03T02:14:39.337Z,9.745838
2022-09-03T02:15:39.423Z,9.745831
2022-09-03T02:16:39.319Z,9.745708
2022-09-03T02:17:39.316Z,9.745752
2022-09-03T02:18:39.306Z,9.745686
2022-09-03T02:19:39.306Z,9.745749
2022-09-03T02:20:39.291Z,9.745750
2022-09-03T02:21:39.307Z,9.745739
2022-09-03T02:22:39.275Z,9.745669
2022-09-03T02:23:39.263Z,9.745617
2022-09-03T02:24:39.259Z,9.745690
2022-09-03T02:25:39.286Z,9.745687
2022-09-03T02:26:39.251Z,9.745495
2022-09-03T02:27:39.225Z,9.745591
2022-09-03T02:28:40.230Z,9.745496
2022-09-03T02:29:39.226Z,9.745914
2022-09-03T02:30:39.253Z,9.745870
2022-09-03T02:31:39.229Z,9.745824
2022-09-03T02:32:39.198Z,9.745779
2022-09-03T02:33:39.189Z,9.746010
2022-09-03T02:34:39.182Z,9.746134
2022-09-03T02:35:39.172Z,9.745902
2022-09-03T02:36:39.200Z,9.745946
2022-09-03T02:37:39.159Z,9.745787
2022-09-03T02:38:39.154Z,9.745741
2022-09-03T02:39:39.503Z,9.745729
2022-09-03T02:40:40.140Z,9.745197
2022-09-03T02:41:39.151Z,9.745699
2022-09-03T02:42:39.125Z,9.745436
2022-09-03T02:43:39.118Z,9.745506
2022-09-03T02:44:39.106Z,9.745773
2022-09-03T02:45:39.173Z,9.745885
2022-09-03T02:46:39.132Z,9.745810
2022-09-03T02:47:39.086Z,9.745690
2022-09-03T02:48:39.074Z,9.745413
2022-09-03T02:49:39.066Z,9.745609
2022-09-03T02:50:39.060Z,9.745722
2022-09-03T02:51:39.087Z,9.745687
2022-09-03T02:52:39.043Z,9.745797
2022-09-03T02:53:39.034Z,9.745421
2022-09-03T02:54:39.033Z,9.745440
2022-09-03T02:55:39.027Z,9.745615
2022-09-03T02:56:39.038Z,9.745652
2022-09-03T02:57:39.006Z,9.745433
2022-09-03T02:58:38.998Z,9.745332
2022-09-03T02:59:38.987Z,9.745556
2022-09-03T03:00:38.987Z,9.745582
2022-09-03T03:01:39.062Z,9.745462
2022-09-03T03:02:39.012Z,9.745481
2022-09-03T03:03:38.975Z,9.745665
2022-09-03T03:04:38.952Z,9.745635
2022-09-03T03:05:38.942Z,9.745649
2022-09-03T03:06:39.015Z,9.745552
2022-09-03T03:07:38.932Z,9.745481
2022-09-03T03:08:38.917Z,9.745521
2022-09-03T03:09:38.915Z,9.745639
2022-09-03T03:10:38.904Z,9.745642
2022-09-03T03:11:38.921Z,9.745657
2022-09-03T03:12:38.890Z,9.745462
2022-09-03T03:13:38.880Z,9.745649
2022-09-03T03:14:39.879Z,9.745647
2022-09-03T03:15:38.867Z,9.745617
2022-09-03T03:16:38.946Z,9.745738
2022-09-03T03:17:38.847Z,9.745805
2022-09-03T03:18:38.842Z,9.745534
2022-09-03T03:19:38.837Z,9.745795
2022-09-03T03:20:38.828Z,9.745660
2022-09-03T03:21:38.844Z,9.745595
2022-09-03T03:22:38.801Z,9.745641
2022-09-03T03:23:39.803Z,9.745522
2022-09-03T03:24:38.799Z,9.745687
2022-09-03T03:25:38.789Z,9.745615
2022-09-03T03:26:38.808Z,9.745577
2022-09-03T03:27:38.776Z,9.745734
2022-09-03T03:28:38.764Z,9.745621
2022-09-03T03:29:38.760Z,9.745748
2022-09-03T03:30:38.775Z,9.745587
2022-09-03T03:31:38.915Z,9.745587
2022-09-03T03:32:38.737Z,9.745547
2022-09-03T03:33:38.730Z,9.745665
2022-09-03T03:34:38.724Z,9.745494
2022-09-03T03:35:38.720Z,9.745617
2022-09-03T03:36:38.739Z,9.745251
2022-09-03T03:37:38.693Z,9.745545
2022-09-03T03:38:38.685Z,9.745628
2022-09-03T03:39:38.728Z,9.745565
2022-09-03T03:40:38.682Z,9.745636
2022-09-03T03:41:38.684Z,9.745595
2022-09-03T03:42:38.666Z,9.745629
2022-09-03T03:43:38.654Z,9.745766
2022-09-03T03:44:38.647Z,9.745543
2022-09-03T03:45:38.680Z,9.745675
2022-09-03T03:46:38.657Z,9.745480
2022-09-03T03:47:38.621Z,9.745416
2022-09-03T03:48:38.615Z,9.745435
2022-09-03T03:49:38.601Z,9.745428
2022-09-03T03:50:38.599Z,9.745801
2022-09-03T03:51:38.628Z,9.745609
2022-09-03T03:52:38.588Z,9.745368
2022-09-03T03:53:38.574Z,9.745563
2022-09-03T03:54:38.574Z,9.745600
2022-09-03T03:55:38.567Z,9.745333
2022-09-03T03:56:38.582Z,9.745330
2022-09-03T03:57:38.545Z,9.745240
2022-09-03T03:58:38.537Z,9.745394
2022-09-03T03:59:38.524Z,9.745268
2022-09-03T04:00:38.525Z,9.745080
2022-09-03T04:01:38.586Z,9.745172
2022-09-03T04:02:39.272Z,9.745691
2022-09-03T04:03:39.500Z,9.745500
2022-09-03T04:04:38.497Z,9.745341
2022-09-03T04:05:43.298Z,9.744386
2022-09-03T04:06:40.508Z,9.745336
2022-09-03T04:07:38.470Z,9.745625
2022-09-03T04:08:38.464Z,9.745932
2022-09-03T04:09:38.459Z,9.745621
2022-09-03T04:10:38.450Z,9.745008
2022-09-03T04:11:38.467Z,9.745428
2022-09-03T04:12:38.439Z,9.745540
2022-09-03T04:13:38.422Z,9.744908
2022-09-03T04:14:38.432Z,9.744543
2022-09-03T04:15:38.414Z,9.745348
2022-09-03T04:16:38.445Z,9.745101
2022-09-03T04:17:38.393Z,9.745427
2022-09-03T04:18:38.386Z,9.745367
2022-09-03T04:19:38.384Z,9.745470
2022-09-03T04:20:38.370Z,9.745502
2022-09-03T04:21:38.394Z,9.745484
2022-09-03T04:22:38.363Z,9.745391
2022-09-03T04:23:38.352Z,9.745392
2022-09-03T04:24:38.348Z,9.745440
2022-09-03T04:25:38.332Z,9.745282
2022-09-03T04:26:38.355Z,9.745078
2022-09-03T04:27:38.323Z,9.745362
2022-09-03T04:28:38.310Z,9.745514
2022-09-03T04:29:38.311Z,9.745427
2022-09-03T04:30:38.334Z,9.745528
2022-09-03T04:31:38.310Z,9.745625
2022-09-03T04:32:38.280Z,9.745293
2022-09-03T04:33:38.274Z,9.745102
2022-09-03T04:34:38.262Z,9.745255
2022-09-03T04:35:38.254Z,9.745301
2022-09-03T04:36:38.278Z,9.745587
2022-09-03T04:37:38.245Z,9.745547
2022-09-03T04:38:38.236Z,9.745649
2022-09-03T04:39:38.292Z,9.745444
2022-09-03T04:40:38.214Z,9.745459
2022-09-03T04:41:38.235Z,9.745399
2022-09-03T04:42:38.202Z,9.745463
2022-09-03T04:43:38.191Z,9.744981
2022-09-03T04:44:38.188Z,9.745326
2022-09-03T04:45:38.212Z,9.745448
2022-09-03T04:46:38.201Z,9.745321
2022-09-03T04:47:38.156Z,9.745517
2022-09-03T04:48:38.159Z,9.745516
2022-09-03T04:49:38.143Z,9.745552
2022-09-03T04:50:38.138Z,9.745543
2022-09-03T04:51:38.110Z,9.745427
2022-09-03T04:52:39.146Z,9.745356
2022-09-03T04:53:38.117Z,9.745344
2022-09-03T04:54:38.099Z,9.745114
2022-09-03T04:55:38.099Z,9.745449
2022-09-03T04:56:38.090Z,9.745479
2022-09-03T04:57:38.109Z,9.745457
2022-09-03T04:58:38.061Z,9.745367
2022-09-03T04:59:39.061Z,9.745487
2022-09-03T05:00:38.057Z,9.745506
2022-09-03T05:01:38.164Z,9.745245
2022-09-03T05:02:38.140Z,9.745195
2022-09-03T05:03:38.036Z,9.745366
2022-09-03T05:04:38.033Z,9.745496
2022-09-03T05:05:38.022Z,9.745499
2022-09-03T05:06:38.017Z,9.745260
2022-09-03T05:07:38.030Z,9.745471
2022-09-03T05:08:37.990Z,9.745432
2022-09-03T05:09:37.989Z,9.745495
2022-09-03T05:10:37.976Z,9.745229
2022-09-03T05:11:37.966Z,9.745420
2022-09-03T05:12:37.994Z,9.745498
2022-09-03T05:13:37.952Z,9.745522
2022-09-03T05:14:37.946Z,9.745444
2022-09-03T05:15:37.942Z,9.745433
2022-09-03T05:16:38.004Z,9.745470
2022-09-03T05:17:37.941Z,9.745302
2022-09-03T05:18:37.906Z,9.745430
2022-09-03T05:19:38.912Z,9.745161
2022-09-03T05:20:37.889Z,9.745358
2022-09-03T05:21:38.917Z,9.745428
2022-09-03T05:22:37.882Z,9.745457
2022-09-03T05:23:37.932Z,9.745446
2022-09-03T05:24:37.871Z,9.745517
2022-09-03T05:25:37.869Z,9.746067
2022-09-03T05:26:37.878Z,9.746413
2022-09-03T05:27:37.845Z,9.745900
2022-09-03T05:28:37.839Z,9.745737
2022-09-03T05:29:37.836Z,9.745750
2022-09-03T05:30:37.820Z,9.745649
2022-09-03T05:31:37.873Z,9.745937
2022-09-03T05:32:37.802Z,9.746726
2022-09-03T05:33:38.794Z,9.746130
2022-09-03T05:34:37.790Z,9.745761
2022-09-03T05:35:37.781Z,9.745515
2022-09-03T05:36:37.801Z,9.745491
2022-09-03T05:37:37.766Z,9.745603
2022-09-03T05:38:37.771Z,9.745580
2022-09-03T05:39:37.843Z,9.745504
2022-09-03T05:40:37.744Z,9.745689
2022-09-03T05:41:37.730Z,9.745658
2022-09-03T05:42:37.762Z,9.745643
2022-09-03T05:43:37.733Z,9.745757
2022-09-03T05:44:37.710Z,9.745724
2022-09-03T05:45:37.759Z,9.745608
2022-09-03T05:46:37.693Z,9.745605
2022-09-03T05:47:37.714Z,9.745584
2022-09-03T05:48:37.687Z,9.745646
2022-09-03T05:49:37.680Z,9.745743
2022-09-03T05:50:37.669Z,9.745506
2022-09-03T05:51:37.661Z,9.745815
2022-09-03T05:52:37.677Z,9.745489
2022-09-03T05:53:37.643Z,9.745501
2022-09-03T05:54:37.634Z,9.745871
2022-09-03T05:55:37.627Z,9.745590
2022-09-03T05:56:37.622Z,9.745586
2022-09-03T05:57:37.631Z,9.745593
2022-09-03T05:58:37.606Z,9.745947
2022-09-03T05:59:37.599Z,9.745638
2022-09-03T06:00:37.594Z,9.745645
2022-09-03T06:01:37.627Z,9.745864
2022-09-03T06:02:37.674Z,9.745741
2022-09-03T06:03:37.648Z,9.745952
2022-09-03T06:04:37.564Z,9.745713
2022-09-03T06:05:37.556Z,9.745732
2022-09-03T06:06:37.545Z,9.745617
2022-09-03T06:07:37.564Z,9.745503
2022-09-03T06:08:37.534Z,9.745509
2022-09-03T06:09:37.527Z,9.745638
2022-09-03T06:10:40.965Z,9.745560
2022-09-03T06:11:38.640Z,9.745632
2022-09-03T06:12:37.533Z,9.745562
2022-09-03T06:13:37.508Z,9.745369
2022-09-03T06:14:37.492Z,9.745514
2022-09-03T06:15:37.478Z,9.745564
2022-09-03T06:16:37.535Z,9.745505
2022-09-03T06:17:37.484Z,9.745489
2022-09-03T06:18:37.548Z,9.745455
2022-09-03T06:19:37.451Z,9.745726
2022-09-03T06:20:37.524Z,9.745428
2022-09-03T06:21:37.432Z,9.745367
2022-09-03T06:22:37.449Z,9.745306
2022-09-03T06:23:37.419Z,9.745042
2022-09-03T06:24:37.412Z,9.745161
2022-09-03T06:25:37.404Z,9.745006
2022-09-03T06:26:37.394Z,9.745345
2022-09-03T06:27:37.411Z,9.745309
2022-09-03T06:28:37.376Z,9.745322
2022-09-03T06:29:37.367Z,9.745326
2022-09-03T06:30:37.373Z,9.745443
2022-09-03T06:31:37.416Z,9.745381
2022-09-03T06:32:37.384Z,9.745487
2022-09-03T06:33:37.343Z,9.745377
2022-09-03T06:34:37.338Z,9.745200
2022-09-03T06:35:42.795Z,9.745243
2022-09-03T06:36:38.322Z,9.745269
2022-09-03T06:37:37.340Z,9.745382
2022-09-03T06:38:37.307Z,9.745299
2022-09-03T06:39:37.363Z,9.745335
2022-09-03T06:40:37.298Z,9.745543
2022-09-03T06:41:37.300Z,9.745629
2022-09-03T06:42:37.288Z,9.745638
2022-09-03T06:43:37.297Z,9.745646
2022-09-03T06:44:37.268Z,9.745438
2022-09-03T06:45:37.297Z,9.745548
2022-09-03T06:46:37.271Z,9.745695
2022-09-03T06:47:37.251Z,9.745445
2022-09-03T06:48:37.273Z,9.745492
2022-09-03T06:49:37.232Z,9.745528
2022-09-03T06:50:37.234Z,9.745426
2022-09-03T06:51:37.220Z,9.745525
2022-09-03T06:52:37.213Z,9.745284
2022-09-03T06:53:37.231Z,9.745508
2022-09-03T06:54:37.204Z,9.745615
2022-09-03T06:55:37.193Z,9.745555
2022-09-03T06:56:40.226Z,9.745601
2022-09-03T06:57:38.192Z,9.745670
2022-09-03T06:58:37.201Z,9.745708
2022-09-03T06:59:37.165Z,9.745842
2022-09-03T07:00:37.216Z,9.745506
2022-09-03T07:01:37.290Z,9.745667
2022-09-03T07:02:39.691Z,9.745502
2022-09-03T07:03:37.170Z,9.745565
2022-09-03T07:04:37.132Z,9.745637
2022-09-03T07:05:37.129Z,9.745500
2022-09-03T07:06:37.127Z,9.745571
2022-09-03T07:07:37.118Z,9.745533
2022-09-03T07:08:37.132Z,9.745667
2022-09-03T07:09:37.097Z,9.745674
2022-09-03T07:10:37.097Z,9.745706
2022-09-03T07:11:37.086Z,9.745645
2022-09-03T07:12:37.093Z,9.745303
2022-09-03T07:13:37.103Z,9.745533
2022-09-03T07:14:37.073Z,9.745370
2022-09-03T07:15:37.064Z,9.745233
2022-09-03T07:16:37.191Z,9.745851
2022-09-03T07:17:37.056Z,9.745658
2022-09-03T07:18:37.043Z,9.745728
2022-09-03T07:19:37.057Z,9.745888
2022-09-03T07:20:37.026Z,9.745564
2022-09-03T07:21:37.079Z,9.745227
2022-09-03T07:22:37.016Z,9.745359
2022-09-03T07:23:37.005Z,9.745470
2022-09-03T07:24:37.030Z,9.745428
2022-09-03T07:25:36.993Z,9.745540
2022-09-03T07:26:36.982Z,9.745522
2022-09-03T07:27:36.989Z,9.745340
2022-09-03T07:28:36.978Z,9.745456
2022-09-03T07:29:37.001Z,9.745388
2022-09-03T07:30:36.961Z,9.745451
2022-09-03T07:31:36.979Z,9.745525
2022-09-03T07:32:36.952Z,9.745439
2022-09-03T07:33:36.938Z,9.745342
2022-09-03T07:34:36.977Z,9.745141
2022-09-03T07:35:36.926Z,9.745351
2022-09-03T07:36:36.949Z,9.745290
2022-09-03T07:37:36.921Z,9.745493
2022-09-03T07:38:36.916Z,9.745321
2022-09-03T07:39:36.972Z,9.745465
2022-09-03T07:40:36.907Z,9.745336
2022-09-03T07:41:36.886Z,9.745401
2022-09-03T07:42:36.888Z,9.745391
2022-09-03T07:43:36.879Z,9.745362
2022-09-03T07:44:36.891Z,9.745435
2022-09-03T07:45:36.866Z,9.745391
2022-09-03T07:46:36.890Z,9.745458
2022-09-03T07:47:36.853Z,9.745495
2022-09-03T07:48:37.664Z,9.745505
2022-09-03T07:49:37.834Z,9.745430
2022-09-03T07:50:36.827Z,9.745428
2022-09-03T07:51:36.847Z,9.744920
2022-09-03T07:52:36.813Z,9.745439
2022-09-03T07:53:36.812Z,9.745351
2022-09-03T07:54:36.793Z,9.745327
2022-09-03T07:55:36.781Z,9.745547
2022-09-03T07:56:36.808Z,9.745296
2022-09-03T07:57:36.767Z,9.745358
2022-09-03T07:58:36.767Z,9.745500
2022-09-03T07:59:36.761Z,9.745421
2022-09-03T08:00:36.799Z,9.745441
2022-09-03T08:01:36.774Z,9.745560
2022-09-03T08:02:36.743Z,9.745637
2022-09-03T08:03:36.776Z,9.745583
2022-09-03T08:04:36.726Z,9.745408
2022-09-03T08:05:36.714Z,9.745392
2022-09-03T08:06:36.743Z,9.745436
2022-09-03T08:07:36.702Z,9.745497
2022-09-03T08:08:36.698Z,9.745575
2022-09-03T08:09:36.688Z,9.745604
2022-09-03T08:10:36.683Z,9.745618
2022-09-03T08:11:36.707Z,9.745231
2022-09-03T08:12:36.666Z,9.745463
2022-09-03T08:13:36.658Z,9.745421
2022-09-03T08:14:36.654Z,9.745604
2022-09-03T08:15:36.654Z,9.745684
2022-09-03T08:16:36.738Z,9.745670
2022-09-03T08:17:36.662Z,9.745523
2022-09-03T08:18:36.626Z,9.745514
2022-09-03T08:19:36.616Z,9.745504
2022-09-03T08:20:36.615Z,9.745564
2022-09-03T08:21:36.634Z,9.745575
2022-09-03T08:22:36.598Z,9.745514
2022-09-03T08:23:36.592Z,9.745454
2022-09-03T08:24:36.587Z,9.745490
2022-09-03T08:25:36.577Z,9.745532
2022-09-03T08:26:36.595Z,9.745388
2022-09-03T08:27:36.562Z,9.745441
2022-09-03T08:28:36.554Z,9.745607
2022-09-03T08:29:36.547Z,9.745498
2022-09-03T08:30:36.555Z,9.745565
2022-09-03T08:31:36.690Z,9.745453
2022-09-03T08:32:36.519Z,9.745593
2022-09-03T08:33:36.514Z,9.745407
2022-09-03T08:34:36.504Z,9.745598
2022-09-03T08:35:36.501Z,9.745436
2022-09-03T08:36:36.519Z,9.745468
2022-09-03T08:37:36.483Z,9.745434
2022-09-03T08:38:36.471Z,9.745563
2022-09-03T08:39:36.502Z,9.745889
2022-09-03T08:40:36.457Z,9.745886
2022-09-03T08:41:36.478Z,9.745501
2022-09-03T08:42:36.442Z,9.745282
2022-09-03T08:43:36.434Z,9.745336
2022-09-03T08:44:36.428Z,9.745411
2022-09-03T08:45:36.420Z,9.745481
2022-09-03T08:46:36.512Z,9.745587
2022-09-03T08:47:36.403Z,9.745427
2022-09-03T08:48:36.397Z,9.745321
2022-09-03T08:49:36.391Z,9.745234
2022-09-03T08:50:36.378Z,9.745413
2022-09-03T08:51:36.401Z,9.745392
2022-09-03T08:52:36.365Z,9.745420
2022-09-03T08:53:36.364Z,9.745269
2022-09-03T08:54:36.355Z,9.745389
2022-09-03T08:55:36.345Z,9.745427
2022-09-03T08:56:36.351Z,9.745377
2022-09-03T08:57:36.326Z,9.745443
2022-09-03T08:58:36.328Z,9.745464
2022-09-03T08:59:36.315Z,9.745259
2022-09-03T09:00:36.309Z,9.745359
2022-09-03T09:01:36.392Z,9.745558
2022-09-03T09:02:36.396Z,9.745474
2022-09-03T09:03:36.284Z,9.745543
2022-09-03T09:04:36.278Z,9.745305
2022-09-03T09:05:36.272Z,9.745428
2022-09-03T09:06:36.282Z,9.745378
2022-09-03T09:07:36.261Z,9.745452
2022-09-03T09:08:36.245Z,9.745457
2022-09-03T09:09:36.236Z,9.745575
2022-09-03T09:10:36.236Z,9.745530
2022-09-03T09:11:36.247Z,9.745538
2022-09-03T09:12:44.063Z,9.745577
2022-09-03T09:13:38.207Z,9.745566
2022-09-03T09:14:36.200Z,9.745904
2022-09-03T09:15:36.295Z,9.745832
2022-09-03T09:16:36.211Z,9.745749
2022-09-03T09:17:36.184Z,9.745744
2022-09-03T09:18:36.169Z,9.745824
2022-09-03T09:19:36.160Z,9.745646
2022-09-03T09:20:37.149Z,9.745622
2022-09-03T09:21:36.169Z,9.745623
2022-09-03T09:22:36.137Z,9.745558
2022-09-03T09:23:36.135Z,9.745352
2022-09-03T09:24:36.129Z,9.745493
2022-09-03T09:25:36.125Z,9.745522
2022-09-03T09:26:36.142Z,9.745633
2022-09-03T09:27:36.104Z,9.745581
2022-09-03T09:28:36.094Z,9.745478
2022-09-03T09:29:36.087Z,9.745522
2022-09-03T09:30:36.078Z,9.745662
2022-09-03T09:31:36.138Z,9.745878
2022-09-03T09:32:36.060Z,9.746174
2022-09-03T09:33:36.056Z,9.745838
2022-09-03T09:34:36.049Z,9.745353
2022-09-03T09:35:36.064Z,9.745297
2022-09-03T09:36:36.035Z,9.744701
2022-09-03T09:37:36.019Z,9.744375
2022-09-03T09:38:37.016Z,9.744076
2022-09-03T09:39:36.060Z,9.744836
2022-09-03T09:40:36.023Z,9.745293
2022-09-03T09:41:35.995Z,9.745891
2022-09-03T09:42:35.984Z,9.745963
2022-09-03T09:43:35.986Z,9.745700
2022-09-03T09:44:35.973Z,9.745514
2022-09-03T09:45:35.993Z,9.745217
2022-09-03T09:46:35.986Z,9.745413
2022-09-03T09:47:35.947Z,9.745304
2022-09-03T09:48:35.938Z,9.745390
2022-09-03T09:49:35.936Z,9.745379
2022-09-03T09:50:35.950Z,9.745380
2022-09-03T09:51:35.914Z,9.745359
2022-09-03T09:52:35.914Z,9.745205
2022-09-03T09:53:35.903Z,9.745175
2022-09-03T09:54:35.892Z,9.745118
2022-09-03T09:55:35.917Z,9.745352
2022-09-03T09:56:35.880Z,9.744426
2022-09-03T09:57:35.875Z,9.744748
2022-09-03T09:58:35.866Z,9.744949
2022-09-03T09:59:35.857Z,9.745276
2022-09-03T10:00:35.850Z,9.745739
2022-09-03T10:01:35.924Z,9.745449
2022-09-03T10:02:35.870Z,9.745422
2022-09-03T10:03:35.833Z,9.745492
2022-09-03T10:04:35.822Z,9.745413
2022-09-03T10:05:35.813Z,9.744863
2022-09-03T10:06:35.830Z,9.744346
2022-09-03T10:07:35.799Z,9.744934
2022-09-03T10:08:35.790Z,9.745004
2022-09-03T10:09:35.785Z,9.744920
2022-09-03T10:10:35.774Z,9.745142
2022-09-03T10:11:35.800Z,9.745414
2022-09-03T10:12:35.761Z,9.745428
2022-09-03T10:13:35.754Z,9.745489
2022-09-03T10:14:35.750Z,9.745294
2022-09-03T10:15:35.800Z,9.745203
2022-09-03T10:16:35.774Z,9.745231
2022-09-03T10:17:37.092Z,9.745365
2022-09-03T10:18:35.721Z,9.746125
2022-09-03T10:19:35.711Z,9.746157
2022-09-03T10:20:35.707Z,9.745867
2022-09-03T10:21:35.726Z,9.746079
2022-09-03T10:22:35.696Z,9.745888
2022-09-03T10:23:35.879Z,9.745390
2022-09-03T10:24:35.672Z,9.744667
2022-09-03T10:25:35.667Z,9.744690
2022-09-03T10:26:35.688Z,9.745233
2022-09-03T10:27:35.652Z,9.745808
2022-09-03T10:28:35.641Z,9.745984
2022-09-03T10:29:35.637Z,9.745874
2022-09-03T10:30:35.626Z,9.745378
2022-09-03T10:31:35.701Z,9.745503
2022-09-03T10:32:37.927Z,9.745522
2022-09-03T10:33:35.598Z,9.745208
2022-09-03T10:34:35.592Z,9.745396
2022-09-03T10:35:35.588Z,9.745398
2022-09-03T10:36:35.603Z,9.745290
2022-09-03T10:37:35.570Z,9.745542
2022-09-03T10:38:35.566Z,9.745253
2022-09-03T10:39:38.809Z,9.745478
2022-09-03T10:40:36.544Z,9.745394
2022-09-03T10:41:35.572Z,9.745194
2022-09-03T10:42:35.531Z,9.745156
2022-09-03T10:43:35.525Z,9.745165
2022-09-03T10:44:35.540Z,9.745107
2022-09-03T10:45:37.751Z,9.745136
2022-09-03T10:46:35.622Z,9.745266
2022-09-03T10:47:35.491Z,9.745466
2022-09-03T10:48:35.488Z,9.745572
2022-09-03T10:49:35.480Z,9.745520
2022-09-03T10:50:35.496Z,9.745776
2022-09-03T10:51:35.463Z,9.745909
2022-09-03T10:52:35.455Z,9.745770
2022-09-03T10:53:35.454Z,9.745473
2022-09-03T10:54:35.447Z,9.745264
2022-09-03T10:55:35.435Z,9.745301
2022-09-03T10:56:35.455Z,9.745267
2022-09-03T10:57:35.421Z,9.745260
2022-09-03T10:58:35.414Z,9.745338
2022-09-03T10:59:35.402Z,9.745413
2022-09-03T11:00:35.392Z,9.745370
2022-09-03T11:01:35.511Z,9.745354
2022-09-03T11:02:35.418Z,9.745104
2022-09-03T11:03:35.374Z,9.745243
2022-09-03T11:04:37.667Z,9.744965
2022-09-03T11:05:35.350Z,9.744951
2022-09-03T11:06:35.375Z,9.745128
2022-09-03T11:07:35.338Z,9.745635
2022-09-03T11:08:35.328Z,9.744800
2022-09-03T11:09:35.323Z,9.744390
2022-09-03T11:10:35.314Z,9.745268
2022-09-03T11:11:35.328Z,9.745349
2022-09-03T11:12:35.318Z,9.745664
2022-09-03T11:13:35.293Z,9.745390
2022-09-03T11:14:35.285Z,9.745272
2022-09-03T11:15:35.329Z,9.745372
2022-09-03T11:16:35.317Z,9.745146
2022-09-03T11:17:35.260Z,9.745247
2022-09-03T11:18:35.268Z,9.745436
2022-09-03T11:19:35.243Z,9.745241
2022-09-03T11:20:35.236Z,9.745141
2022-09-03T11:21:35.309Z,9.745262
2022-09-03T11:22:35.218Z,9.745234
2022-09-03T11:23:35.199Z,9.745390
2022-09-03T11:24:36.207Z,9.745338
2022-09-03T11:25:35.199Z,9.745321
2022-09-03T11:26:35.216Z,9.745294
2022-09-03T11:27:35.179Z,9.745369
2022-09-03T11:28:35.180Z,9.745284
2022-09-03T11:29:35.166Z,9.745327
2022-09-03T11:30:35.254Z,9.745215
2022-09-03T11:31:35.203Z,9.745494
2022-09-03T11:32:35.145Z,9.745398
2022-09-03T11:33:35.133Z,9.745255
2022-09-03T11:34:35.135Z,9.745473
2022-09-03T11:35:35.124Z,9.745487
2022-09-03T11:36:35.143Z,9.745596
2022-09-03T11:37:35.112Z,9.745465
2022-09-03T11:38:35.100Z,9.745507
2022-09-03T11:39:35.145Z,9.745583
2022-09-03T11:40:35.083Z,9.745535
2022-09-03T11:41:35.098Z,9.745319
2022-09-03T11:42:35.086Z,9.745372
2022-09-03T11:43:35.060Z,9.745536
2022-09-03T11:44:35.053Z,9.745655